createdAt,value
2022-11-03T00:01:48.785Z,27.07
2022-11-03T00:06:56.915Z,36.43
2022-11-03T00:12:04.891Z,28.53
2022-11-03T00:17:13.518Z,31.77
2022-11-03T00:22:21.393Z,26.17
2022-11-03T00:27:29.531Z,29.20
2022-11-03T00:32:37.338Z,33.50
2022-11-03T00:37:45.136Z,29.17
2022-11-03T00:42:52.939Z,30.07
2022-11-03T00:48:03.572Z,24.93
2022-11-03T00:53:11.959Z,29.07
2022-11-03T00:58:19.764Z,24.67
2022-11-03T01:03:28.228Z,27.63
2022-11-03T01:08:36.851Z,21.50
2022-11-03T01:13:44.674Z,22.90
2022-11-03T01:18:52.527Z,21.10
2022-11-03T01:24:02.346Z,23.07
2022-11-03T01:29:11.288Z,24.80
2022-11-03T01:34:20.524Z,24.70
2022-11-03T01:39:28.362Z,20.97
2022-11-03T01:44:38.418Z,22.60
2022-11-03T01:49:50.446Z,20.53
2022-11-03T01:55:00.685Z,23.13
2022-11-03T02:00:09.158Z,26.70
2022-11-03T02:05:17.258Z,24.03
2022-11-03T02:10:25.697Z,24.43
2022-11-03T02:15:34.532Z,21.53
2022-11-03T02:20:42.818Z,26.60
2022-11-03T02:25:53.544Z,22.03
2022-11-03T02:31:05.230Z,20.60
2022-11-03T02:36:16.147Z,23.33
2022-11-03T02:41:25.102Z,26.30
2022-11-03T02:46:33.513Z,25.73
2022-11-03T02:51:41.558Z,28.73
2022-11-03T02:56:51.619Z,36.50
2022-11-03T03:02:02.682Z,23.37
2022-11-03T03:07:13.816Z,27.97
2022-11-03T03:12:21.777Z,26.80
2022-11-03T03:17:33.116Z,29.10
2022-11-03T03:22:44.056Z,29.93
2022-11-03T03:27:52.764Z,24.57
2022-11-03T03:33:00.963Z,26.17
2022-11-03T03:38:12.280Z,23.37
2022-11-03T03:43:21.181Z,22.10
2022-11-03T03:48:28.966Z,26.47
2022-11-03T03:53:37.539Z,27.30
2022-11-03T03:58:46.210Z,21.07
2022-11-03T04:03:54.090Z,22.90
2022-11-03T04:09:01.877Z,25.10
2022-11-03T04:14:12.190Z,19.03
2022-11-03T04:19:21.507Z,20.83
2022-11-03T04:24:30.695Z,25.90
2022-11-03T04:29:39.383Z,28.63
2022-11-03T04:34:48.035Z,25.40
2022-11-03T04:39:59.028Z,24.13
2022-11-03T04:45:09.776Z,22.13
2022-11-03T04:50:21.296Z,19.40
2022-11-03T04:55:29.925Z,21.47
2022-11-03T05:00:37.743Z,23.27
2022-11-03T05:05:47.954Z,24.70
2022-11-03T05:10:55.927Z,23.07
2022-11-03T05:16:06.159Z,23.40
2022-11-03T05:21:16.641Z,26.53
2022-11-03T05:26:25.862Z,28.10
2022-11-03T05:31:35.619Z,28.60
2022-11-03T05:36:43.933Z,29.80
2022-11-03T05:41:52.825Z,31.87
2022-11-03T05:47:04.482Z,29.00
2022-11-03T05:52:13.791Z,27.03
2022-11-03T05:57:21.588Z,29.47
2022-11-03T06:02:33.159Z,33.97
2022-11-03T06:07:41.089Z,24.30
2022-11-03T06:12:49.475Z,26.23
2022-11-03T06:17:57.807Z,27.63
2022-11-03T06:23:07.130Z,28.50
2022-11-03T06:28:18.216Z,26.00
2022-11-03T06:33:29.918Z,25.13
2022-11-03T06:38:37.719Z,24.27
2022-11-03T06:43:45.542Z,27.53
2022-11-03T06:48:55.064Z,28.70
2022-11-03T06:54:03.896Z,22.53
2022-11-03T06:59:12.087Z,32.33
2022-11-03T07:04:22.011Z,25.63
2022-11-03T07:09:30.338Z,25.80
2022-11-03T07:14:38.917Z,19.50
2022-11-03T07:19:46.969Z,22.13
2022-11-03T07:24:57.587Z,22.43
2022-11-03T07:30:09.498Z,21.80
2022-11-03T07:35:23.683Z,24.13
2022-11-03T07:40:34.244Z,23.30
2022-11-03T07:45:45.311Z,27.77
2022-11-03T07:50:55.040Z,35.67
2022-11-03T07:56:04.088Z,31.57
2022-11-03T08:01:15.110Z,27.60
2022-11-03T08:06:22.937Z,25.23
2022-11-03T08:11:30.822Z,24.73
2022-11-03T08:16:39.712Z,20.47
2022-11-03T08:21:48.053Z,16.73
2022-11-03T08:26:55.969Z,26.47
2022-11-03T08:32:03.948Z,13.40
2022-11-03T08:37:11.747Z,13.03
2022-11-03T08:42:19.708Z,11.00
2022-11-03T08:47:27.646Z,10.00
2022-11-03T08:52:36.057Z,11.07
2022-11-03T08:57:43.864Z,12.07
2022-11-03T09:02:52.024Z,16.17
2022-11-03T09:13:10.667Z,10.37
2022-11-03T09:18:18.589Z,9.93
2022-11-03T09:23:26.396Z,8.73
2022-11-03T09:28:34.784Z,7.10
2022-11-03T09:33:44.213Z,20.90
2022-11-03T09:38:52.338Z,13.70
2022-11-03T09:44:00.647Z,11.63
2022-11-03T09:49:08.491Z,9.80
2022-11-03T09:54:17.259Z,5.50
2022-11-03T09:59:25.363Z,7.07
2022-11-03T10:04:33.491Z,12.23
2022-11-03T10:09:44.555Z,7.13
2022-11-03T10:14:52.776Z,4.53
2022-11-03T10:20:01.187Z,15.10
2022-11-03T10:25:12.116Z,7.40
2022-11-03T10:30:20.022Z,14.07
2022-11-03T10:35:31.467Z,10.33
2022-11-03T10:40:47.762Z,6.73
2022-11-03T10:45:56.396Z,11.30
2022-11-03T10:51:05.033Z,6.13
2022-11-03T10:56:12.914Z,9.43
2022-11-03T11:01:21.219Z,14.17
2022-11-03T11:06:30.666Z,9.87
2022-11-03T11:11:38.856Z,9.13
2022-11-03T11:16:50.459Z,12.87
2022-11-03T11:22:01.056Z,10.10
2022-11-03T11:27:12.009Z,7.60
2022-11-03T11:32:23.031Z,7.17
2022-11-03T11:42:46.186Z,5.53
2022-11-03T11:47:54.171Z,5.87
2022-11-03T11:58:19.675Z,6.53
2022-11-03T12:03:30.839Z,9.63
2022-11-03T12:08:39.815Z,7.27
2022-11-03T12:13:52.037Z,8.50
2022-11-03T12:19:04.187Z,11.07
2022-11-03T12:24:16.170Z,8.60
2022-11-03T12:29:24.638Z,7.33
2022-11-03T12:34:33.652Z,11.30
2022-11-03T12:39:42.729Z,10.43
2022-11-03T12:44:50.654Z,10.40
2022-11-03T12:49:58.471Z,7.27
2022-11-03T12:55:07.185Z,5.60
2022-11-03T13:00:15.999Z,6.23
2022-11-03T13:05:25.560Z,10.03
2022-11-03T13:10:33.414Z,9.60
2022-11-03T13:15:42.284Z,11.70
2022-11-03T13:20:50.177Z,8.20
2022-11-03T13:25:58.101Z,11.30
2022-11-03T13:31:06.291Z,10.17
2022-11-03T13:36:14.226Z,9.73
2022-11-03T13:41:22.372Z,14.13
2022-11-03T13:46:30.783Z,7.80
2022-11-03T13:51:38.593Z,8.97
2022-11-03T14:07:07.208Z,11.93
2022-11-03T14:12:16.663Z,8.77
2022-11-03T14:17:25.270Z,6.37
2022-11-03T14:22:33.736Z,11.67
2022-11-03T14:27:41.633Z,12.47
2022-11-03T14:32:49.596Z,9.93
2022-11-03T14:37:59.363Z,8.27
2022-11-03T14:43:07.584Z,13.10
2022-11-03T14:48:15.807Z,9.37
2022-11-03T14:53:23.624Z,8.50
2022-11-03T14:58:31.414Z,12.90
2022-11-03T15:03:40.259Z,16.90
2022-11-03T15:08:52.009Z,11.90
2022-11-03T15:13:57.776Z,20.43
2022-11-03T15:19:06.193Z,11.40
2022-11-03T15:29:24.849Z,14.07
2022-11-03T15:34:33.265Z,13.50
2022-11-03T15:39:41.114Z,13.73
2022-11-03T15:44:49.592Z,15.50
2022-11-03T15:49:57.839Z,18.20
2022-11-03T15:55:08.125Z,13.80
2022-11-03T16:00:16.199Z,19.20
2022-11-03T16:05:25.432Z,14.80
2022-11-03T16:10:34.214Z,14.87
2022-11-03T16:15:42.055Z,20.80
2022-11-03T16:20:49.974Z,18.37
2022-11-03T16:25:58.942Z,21.53
2022-11-03T16:31:07.881Z,19.90
2022-11-03T16:36:15.803Z,17.37
2022-11-03T16:41:29.767Z,15.10
2022-11-03T16:46:38.186Z,18.17
2022-11-03T16:51:47.129Z,13.97
2022-11-03T16:56:55.312Z,15.93
2022-11-03T17:02:03.713Z,18.70
2022-11-03T17:07:11.824Z,17.23
2022-11-03T17:12:19.842Z,13.17
2022-11-03T17:17:28.003Z,18.67
2022-11-03T17:22:35.953Z,17.13
2022-11-03T17:33:02.057Z,15.90
2022-11-03T17:38:14.127Z,15.40
2022-11-03T17:43:26.398Z,19.00
2022-11-03T17:48:35.317Z,20.23
2022-11-03T17:53:44.653Z,19.80
2022-11-03T17:58:52.687Z,20.57
2022-11-03T18:04:00.575Z,19.93
2022-11-03T18:09:09.157Z,19.87
2022-11-03T18:14:17.303Z,20.80
2022-11-03T18:19:26.157Z,19.90
2022-11-03T18:24:33.996Z,22.97
2022-11-03T18:29:42.478Z,24.10
2022-11-03T18:34:51.299Z,19.83
2022-11-03T18:39:59.671Z,19.53
2022-11-03T18:45:10.886Z,26.03
2022-11-03T18:50:19.230Z,28.53
2022-11-03T18:55:27.745Z,23.87
2022-11-03T19:00:38.980Z,25.73
2022-11-03T19:05:48.106Z,21.67
2022-11-03T19:10:57.754Z,23.23
2022-11-03T19:16:08.957Z,28.87
2022-11-03T19:21:18.539Z,22.07
2022-11-03T19:26:29.658Z,27.97
2022-11-03T19:31:40.327Z,26.63
2022-11-03T19:36:48.686Z,27.20
2022-11-03T19:42:00.398Z,30.80
2022-11-03T19:47:08.429Z,39.80
2022-11-03T19:52:17.263Z,35.60
2022-11-03T19:57:25.202Z,32.00
2022-11-03T20:02:35.037Z,31.83
2022-11-03T20:07:43.564Z,31.00
2022-11-03T20:12:52.058Z,26.60
2022-11-03T20:18:02.174Z,27.23
2022-11-03T20:23:15.817Z,30.10
2022-11-03T20:33:38.010Z,25.30
2022-11-03T20:38:48.558Z,26.97
2022-11-03T20:43:56.965Z,23.23
2022-11-03T20:49:05.267Z,32.03
2022-11-03T20:54:16.198Z,29.37
2022-11-03T20:59:25.847Z,25.13
2022-11-03T21:04:37.587Z,26.23
2022-11-03T21:09:46.274Z,31.80
2022-11-03T21:15:00.342Z,27.67
2022-11-03T21:20:11.331Z,33.33
2022-11-03T21:25:21.988Z,32.63
2022-11-03T21:30:30.439Z,24.03
2022-11-03T21:35:38.591Z,29.37
2022-11-03T21:40:53.712Z,28.30
2022-11-03T21:46:01.776Z,35.33
2022-11-03T21:51:10.035Z,32.60
2022-11-03T21:56:19.152Z,27.20
2022-11-03T22:01:27.063Z,31.77
2022-11-03T22:06:35.415Z,21.90
2022-11-03T22:11:43.264Z,30.80
2022-11-03T22:16:51.534Z,28.40
2022-11-03T22:22:01.599Z,23.07
2022-11-03T22:27:09.869Z,26.20
2022-11-03T22:32:17.894Z,31.83
2022-11-03T22:37:27.313Z,29.47
2022-11-03T22:42:36.768Z,27.63
2022-11-03T22:47:44.743Z,26.80
2022-11-03T22:52:52.616Z,29.27
2022-11-03T22:58:00.544Z,32.37
2022-11-03T23:03:09.323Z,27.83
2022-11-03T23:08:17.715Z,29.57
2022-11-03T23:13:26.067Z,25.57
2022-11-03T23:18:35.439Z,25.87
2022-11-03T23:23:45.766Z,27.30
2022-11-03T23:28:53.675Z,27.00
2022-11-03T23:34:01.562Z,27.70
2022-11-03T23:39:11.052Z,25.87
2022-11-03T23:44:19.349Z,29.10
2022-11-03T23:49:27.586Z,25.90
2022-11-03T23:54:35.686Z,22.93
